This is the latest recevied weather packets stored in our database for station/object N7AWM. If no packets are shown the sender has not sent any weather packets the latest 1 day(s).
| Time | Temp. | Humidity | Pressure | Rain* | Wind** | Luminosity | Snow |
|---|---|---|---|---|---|---|---|
| 1836274482 | 20.56° C | 52% | 1007.7 hPa | 0 mm | 1.34 m/s, 329° | - | - |
| 1836274392 | 21.67° C | 49% | 1007.5 hPa | 0 mm | 1.34 m/s, 335° | - | - |
| 1778053554 | 20° C | 39% | 1007.2 hPa | 0 mm | 3.58 m/s, 311° | - | - |
| 1778052714 | 20° C | 41% | 1007.1 hPa | 0 mm | 3.58 m/s, 313° | - | - |
| 1778051874 | 20.56° C | 40% | 1007.1 hPa | 0 mm | 2.68 m/s, 320° | - | - |
| 1778051034 | 20.56° C | 38% | 1006.9 hPa | 0 mm | 3.13 m/s, 333° | - | - |
| 1778050194 | 21.11° C | 39% | 1006.9 hPa | 0 mm | 4.47 m/s, 314° | - | - |
| 1778049354 | 21.11° C | 38% | 1006.8 hPa | 0 mm | 3.58 m/s, 322° | - | - |
| 1778048514 | 20.56° C | 41% | 1006.8 hPa | 0 mm | 3.13 m/s, 282° | - | - |
| 1778047674 | 20.56° C | 42% | 1006.7 hPa | 0 mm | 3.58 m/s, 314° | - | - |
| 1778046834 | 20.56° C | 43% | 1006.7 hPa | 0 mm | 4.02 m/s, 309° | - | - |
| 1778045994 | 21.11° C | 43% | 1006.7 hPa | 0 mm | 3.58 m/s, 328° | - | - |
| 1778045154 | 21.67° C | 41% | 1006.7 hPa | 0 mm | 4.02 m/s, 327° | - | - |
| 1778044314 | 21.67° C | 40% | 1006.6 hPa | 0 mm | 4.47 m/s, 330° | - | - |
| 1778043475 | 21.67° C | 43% | 1006.6 hPa | 0 mm | 3.13 m/s, 330° | - | - |
| 1778042635 | 21.67° C | 40% | 1006.6 hPa | 0 mm | 3.58 m/s, 332° | - | - |
| 1778041795 | 22.22° C | 41% | 1006.6 hPa | 0 mm | 3.58 m/s, 334° | - | - |
| 1778040955 | 21.67° C | 38% | 1006.4 hPa | 0 mm | 2.68 m/s, 311° | - | - |
| 1778040115 | 21.67° C | 37% | 1006.3 hPa | 0 mm | 3.13 m/s, 307° | - | - |
| 1778039275 | 21.11° C | 39% | 1006.1 hPa | 0 mm | 3.13 m/s, 342° | - | - |
| 1778038435 | 21.11° C | 39% | 1006 hPa | 0 mm | 2.68 m/s, 347° | - | - |
| 1778037595 | 21.11° C | 40% | 1005.8 hPa | 0 mm | 2.24 m/s, 348° | - | - |
| 1778036755 | 22.22° C | 39% | 1005.7 hPa | 0 mm | 1.34 m/s, 349° | - | - |
| 1778035915 | 24.44° C | 34% | 1005.6 hPa | 0 mm | 1.34 m/s, 341° | - | - |
| 1778035075 | 25° C | 39% | 1005.5 hPa | 0 mm | 0 m/s | - | - |
* Rain latest hour (hover to see other rain measurements)
** Current wind speed in m/s (hover to see current wind gust speed)